createdAt,value
2023-11-13T00:01:49.849Z,75.88
2023-11-13T00:04:16.503Z,76.30
2023-11-13T00:06:43.178Z,75.65
2023-11-13T00:09:09.762Z,76.45
2023-11-13T00:11:36.356Z,76.99
2023-11-13T00:14:02.973Z,75.96
2023-11-13T00:16:29.718Z,76.24
2023-11-13T00:18:56.487Z,74.39
2023-11-13T00:21:23.296Z,73.81
2023-11-13T00:23:49.912Z,73.56
2023-11-13T00:26:16.503Z,72.86
2023-11-13T00:28:43.098Z,71.97
2023-11-13T00:31:09.862Z,71.61
2023-11-13T00:33:36.543Z,70.48
2023-11-13T00:36:03.162Z,70.50
2023-11-13T00:38:29.796Z,70.14
2023-11-13T00:40:57.513Z,69.84
2023-11-13T00:43:25.139Z,69.45
2023-11-13T00:45:51.776Z,68.93
2023-11-13T00:48:18.573Z,69.65
2023-11-13T00:50:45.150Z,69.67
2023-11-13T00:53:11.755Z,68.84
2023-11-13T00:55:38.378Z,69.09
2023-11-13T00:58:05.034Z,70.48
2023-11-13T01:00:31.645Z,71.68
2023-11-13T01:02:58.371Z,71.90
2023-11-13T01:05:25.162Z,72.15
2023-11-13T01:07:51.776Z,73.08
2023-11-13T01:10:18.426Z,71.40
2023-11-13T01:12:45.043Z,72.65
2023-11-13T01:15:11.679Z,72.59
2023-11-13T01:17:38.342Z,74.74
2023-11-13T01:20:04.985Z,73.65
2023-11-13T01:22:31.668Z,73.62
2023-11-13T01:24:58.362Z,74.11
2023-11-13T01:27:25.037Z,73.49
2023-11-13T01:29:51.644Z,73.25
2023-11-13T01:32:18.228Z,73.53
2023-11-13T01:34:44.821Z,74.10
2023-11-13T01:37:11.490Z,74.39
2023-11-13T01:39:38.106Z,74.84
2023-11-13T01:42:04.741Z,74.81
2023-11-13T01:44:31.414Z,74.43
2023-11-13T01:46:58.089Z,74.45
2023-11-13T01:49:24.742Z,75.74
2023-11-13T01:51:51.482Z,74.46
2023-11-13T01:54:18.149Z,73.17
2023-11-13T01:56:44.778Z,72.82
2023-11-13T01:59:11.400Z,72.36
2023-11-13T02:01:38.095Z,71.04
2023-11-13T02:04:04.860Z,69.27
2023-11-13T02:06:31.569Z,68.96
2023-11-13T02:08:58.225Z,67.66
2023-11-13T02:11:24.822Z,67.92
2023-11-13T02:13:51.488Z,67.46
2023-11-13T02:16:18.146Z,67.49
2023-11-13T02:18:44.827Z,66.75
2023-11-13T02:21:11.459Z,66.90
2023-11-13T02:23:38.073Z,67.24
2023-11-13T02:26:04.722Z,67.75
2023-11-13T02:28:31.425Z,66.76
2023-11-13T02:30:58.002Z,67.77
2023-11-13T02:33:24.627Z,69.25
2023-11-13T02:35:51.241Z,69.45
2023-11-13T02:38:17.835Z,72.10
2023-11-13T02:40:44.679Z,70.70
2023-11-13T02:43:11.404Z,72.54
2023-11-13T02:45:38.037Z,73.02
2023-11-13T02:48:05.729Z,73.09
2023-11-13T02:50:32.386Z,74.19
2023-11-13T02:52:59.353Z,74.42
2023-11-13T02:55:26.922Z,73.84
2023-11-13T02:57:53.719Z,74.30
2023-11-13T03:00:20.375Z,74.83
2023-11-13T03:02:47.037Z,75.86
2023-11-13T03:05:13.686Z,76.49
2023-11-13T03:07:40.270Z,77.51
2023-11-13T03:10:06.936Z,77.84
2023-11-13T03:12:33.575Z,78.48
2023-11-13T03:15:00.330Z,78.81
2023-11-13T03:17:27.032Z,79.12
2023-11-13T03:19:53.609Z,79.60
2023-11-13T03:22:20.306Z,80.19
2023-11-13T03:24:46.946Z,80.98
2023-11-13T03:27:13.532Z,81.92
2023-11-13T03:29:40.191Z,82.64
2023-11-13T03:32:07.028Z,83.25
2023-11-13T03:34:33.638Z,83.92
2023-11-13T03:37:00.292Z,83.67
2023-11-13T03:39:26.970Z,83.83
2023-11-13T03:41:56.005Z,83.48
2023-11-13T03:44:22.642Z,84.18
2023-11-13T03:46:49.239Z,84.01
2023-11-13T03:49:15.856Z,84.31
2023-11-13T03:51:42.533Z,83.67
2023-11-13T03:54:09.103Z,83.38
2023-11-13T03:56:35.681Z,83.63
2023-11-13T03:59:02.351Z,83.13
2023-11-13T04:01:29.050Z,83.13
2023-11-13T04:03:55.730Z,82.45
2023-11-13T04:06:22.389Z,82.11
2023-11-13T04:08:49.095Z,81.56
2023-11-13T04:11:15.677Z,81.56
2023-11-13T04:13:42.248Z,82.53
2023-11-13T04:16:09.313Z,82.48
2023-11-13T04:18:36.082Z,81.43
2023-11-13T04:21:02.700Z,81.43
2023-11-13T04:23:29.323Z,80.83
2023-11-13T04:25:55.997Z,81.14
2023-11-13T04:28:22.641Z,83.05
2023-11-13T04:30:49.312Z,81.58
2023-11-13T04:33:16.009Z,82.38
2023-11-13T04:35:42.833Z,80.96
2023-11-13T04:38:09.441Z,81.80
2023-11-13T04:40:36.016Z,81.76
2023-11-13T04:43:04.016Z,82.39
2023-11-13T04:45:32.121Z,83.60
2023-11-13T04:47:58.787Z,82.46
2023-11-13T04:50:25.417Z,82.06
2023-11-13T04:52:52.014Z,81.73
2023-11-13T04:55:18.693Z,81.31
2023-11-13T04:57:45.368Z,81.67
2023-11-13T05:00:12.036Z,81.27
2023-11-13T05:02:38.687Z,80.56
2023-11-13T05:05:05.437Z,81.22
2023-11-13T05:07:32.098Z,80.96
2023-11-13T05:09:58.903Z,81.38
2023-11-13T05:12:28.493Z,81.43
2023-11-13T05:14:55.230Z,81.55
2023-11-13T05:17:21.859Z,80.84
2023-11-13T05:19:48.534Z,80.79
2023-11-13T05:22:15.487Z,80.94
2023-11-13T05:24:42.107Z,82.23
2023-11-13T05:27:08.667Z,81.08
2023-11-13T05:29:35.295Z,80.06
2023-11-13T05:32:02.202Z,80.60
2023-11-13T05:34:28.843Z,79.08
2023-11-13T05:36:55.502Z,78.82
2023-11-13T05:39:22.100Z,79.90
2023-11-13T05:41:48.695Z,79.93
2023-11-13T05:44:15.497Z,80.11
2023-11-13T05:46:42.219Z,81.32
2023-11-13T05:49:08.895Z,81.08
2023-11-13T05:51:35.522Z,79.88
2023-11-13T05:54:02.135Z,79.24
2023-11-13T05:56:28.783Z,79.10
2023-11-13T05:58:55.373Z,79.94
2023-11-13T06:01:22.050Z,80.15
2023-11-13T06:03:48.846Z,79.05
2023-11-13T06:06:16.300Z,79.89
2023-11-13T06:08:43.103Z,80.23
2023-11-13T06:11:12.827Z,80.50
2023-11-13T06:13:39.563Z,79.40
2023-11-13T06:16:06.255Z,80.04
2023-11-13T06:18:32.944Z,79.57
2023-11-13T06:20:59.611Z,78.98
2023-11-13T06:23:26.268Z,77.54
2023-11-13T06:25:52.948Z,76.88
2023-11-13T06:28:19.686Z,75.78
2023-11-13T06:30:46.336Z,75.54
2023-11-13T06:33:13.044Z,75.67
2023-11-13T06:35:39.782Z,74.46
2023-11-13T06:38:06.360Z,74.18
2023-11-13T06:40:33.000Z,74.42
2023-11-13T06:42:59.618Z,74.12
2023-11-13T06:45:26.198Z,73.26
2023-11-13T06:47:53.096Z,73.76
2023-11-13T06:50:19.797Z,73.95
2023-11-13T06:52:46.460Z,73.52
2023-11-13T06:55:13.352Z,74.51
2023-11-13T06:57:40.068Z,74.14
2023-11-13T07:00:06.750Z,73.82
2023-11-13T07:02:33.467Z,73.17
2023-11-13T07:05:00.128Z,72.34
2023-11-13T07:07:26.818Z,72.00
2023-11-13T07:09:53.613Z,71.53
2023-11-13T07:12:20.359Z,71.68
2023-11-13T07:14:46.976Z,71.76
2023-11-13T07:17:13.635Z,70.77
2023-11-13T07:19:40.278Z,71.32
2023-11-13T07:22:06.982Z,71.00
2023-11-13T07:24:33.704Z,72.58
2023-11-13T07:27:00.315Z,71.84
2023-11-13T07:29:27.030Z,71.97
2023-11-13T07:31:53.752Z,71.28
2023-11-13T07:34:20.511Z,71.10
2023-11-13T07:36:48.532Z,72.09
2023-11-13T07:39:17.351Z,72.46
2023-11-13T07:41:44.037Z,72.81
2023-11-13T07:44:10.648Z,72.49
2023-11-13T07:46:37.375Z,74.44
2023-11-13T07:49:04.094Z,73.85
2023-11-13T07:51:30.738Z,74.07
2023-11-13T07:53:57.400Z,72.71
2023-11-13T07:56:24.008Z,72.73
2023-11-13T07:58:50.600Z,72.36
2023-11-13T08:01:17.263Z,72.36
2023-11-13T08:03:43.967Z,72.17
2023-11-13T08:06:10.731Z,71.20
2023-11-13T08:08:37.358Z,70.49
2023-11-13T08:13:30.810Z,70.81
2023-11-13T08:15:57.495Z,71.80
2023-11-13T08:18:24.522Z,72.38
2023-11-13T08:20:51.384Z,72.32
2023-11-13T08:23:17.996Z,71.10
2023-11-13T08:25:44.710Z,71.12
2023-11-13T08:28:11.499Z,71.13
2023-11-13T08:30:38.164Z,70.00
2023-11-13T08:33:05.055Z,70.09
2023-11-13T08:35:31.679Z,68.68
2023-11-13T08:37:58.280Z,67.99
2023-11-13T08:40:25.324Z,69.34
2023-11-13T08:42:52.063Z,69.40
2023-11-13T08:45:19.005Z,68.28
2023-11-13T08:47:45.786Z,68.94
2023-11-13T08:50:12.424Z,69.88
2023-11-13T08:52:39.137Z,69.41
2023-11-13T08:55:05.803Z,68.00
2023-11-13T08:57:32.466Z,67.30
2023-11-13T09:00:02.083Z,67.78
2023-11-13T09:02:28.997Z,67.79
2023-11-13T09:04:55.769Z,67.59
2023-11-13T09:07:22.614Z,68.03
2023-11-13T09:09:49.291Z,68.05
2023-11-13T09:12:18.444Z,68.46
2023-11-13T09:14:45.206Z,69.60
2023-11-13T09:17:11.782Z,68.87
2023-11-13T09:19:38.633Z,68.70
2023-11-13T09:22:09.022Z,70.41
2023-11-13T09:24:35.860Z,69.26
2023-11-13T09:27:02.548Z,67.64
2023-11-13T09:29:29.182Z,68.31
2023-11-13T09:31:55.786Z,67.16
2023-11-13T09:34:22.408Z,67.77
2023-11-13T09:36:49.039Z,67.92
2023-11-13T09:39:15.623Z,67.55
2023-11-13T09:41:42.380Z,68.26
2023-11-13T09:44:08.984Z,68.57
2023-11-13T09:46:35.645Z,68.26
2023-11-13T09:49:02.308Z,68.00
2023-11-13T09:51:30.851Z,68.75
2023-11-13T09:53:57.896Z,68.68
2023-11-13T09:56:26.461Z,69.45
2023-11-13T09:58:53.072Z,69.52
2023-11-13T10:01:19.726Z,69.22
2023-11-13T10:03:46.619Z,68.57
2023-11-13T10:06:13.181Z,68.74
2023-11-13T10:08:39.779Z,68.69
2023-11-13T10:11:06.702Z,69.03
2023-11-13T10:13:33.350Z,69.03
2023-11-13T10:16:00.270Z,70.37
2023-11-13T10:18:28.979Z,71.96
2023-11-13T10:20:57.213Z,69.75
2023-11-13T10:23:23.893Z,70.13
2023-11-13T10:25:50.512Z,70.50
2023-11-13T10:28:17.112Z,69.32
2023-11-13T10:30:43.786Z,70.04
2023-11-13T10:33:10.534Z,69.17
2023-11-13T10:35:37.170Z,67.84
2023-11-13T10:38:03.777Z,68.21
2023-11-13T10:40:30.400Z,66.99
2023-11-13T10:42:57.069Z,68.79
2023-11-13T10:45:23.662Z,68.81
2023-11-13T10:47:50.748Z,68.98
2023-11-13T10:50:17.329Z,67.87
2023-11-13T10:52:43.932Z,67.43
2023-11-13T10:55:10.583Z,67.12
2023-11-13T10:57:37.525Z,66.89
2023-11-13T11:00:04.192Z,67.26
2023-11-13T11:02:32.092Z,66.58
2023-11-13T11:04:59.849Z,67.37
2023-11-13T11:07:26.530Z,67.78
2023-11-13T11:09:53.241Z,67.19
2023-11-13T11:12:19.867Z,68.33
2023-11-13T11:14:46.523Z,68.50
2023-11-13T11:17:13.526Z,69.01
2023-11-13T11:19:40.179Z,70.35
2023-11-13T11:22:06.839Z,69.65
2023-11-13T11:24:33.550Z,70.33
2023-11-13T11:27:00.290Z,70.88
2023-11-13T11:29:26.969Z,70.13
2023-11-13T11:31:53.580Z,69.28
2023-11-13T11:34:20.471Z,69.86
2023-11-13T11:36:47.369Z,70.09
2023-11-13T11:39:13.973Z,69.35
2023-11-13T11:41:40.537Z,69.46
2023-11-13T11:44:07.180Z,68.86
2023-11-13T11:46:34.147Z,68.74
2023-11-13T11:49:00.878Z,72.67
2023-11-13T11:51:27.508Z,71.27
2023-11-13T11:53:54.068Z,70.76
2023-11-13T11:56:20.687Z,70.67
2023-11-13T11:58:47.296Z,71.24
2023-11-13T12:01:13.948Z,71.89
2023-11-13T12:03:40.748Z,73.02
2023-11-13T12:06:07.339Z,73.25
2023-11-13T12:08:34.015Z,72.71
2023-11-13T12:11:00.633Z,73.14
2023-11-13T12:13:28.855Z,71.83
2023-11-13T12:15:55.625Z,71.10
2023-11-13T12:18:22.266Z,71.28
2023-11-13T12:20:48.847Z,71.07
2023-11-13T12:23:15.415Z,71.73
2023-11-13T12:25:42.054Z,72.60
2023-11-13T12:28:08.705Z,72.56
2023-11-13T12:30:35.323Z,71.26
2023-11-13T12:33:01.947Z,70.42
2023-11-13T12:35:28.632Z,70.59
2023-11-13T12:37:55.424Z,73.19
2023-11-13T12:40:23.085Z,72.93
2023-11-13T12:42:50.076Z,76.01
2023-11-13T12:45:16.940Z,76.34
2023-11-13T12:47:43.713Z,77.11
2023-11-13T12:50:10.293Z,76.05
2023-11-13T12:52:39.034Z,75.40
2023-11-13T12:55:06.248Z,76.03
2023-11-13T12:57:33.081Z,75.66
2023-11-13T12:59:59.684Z,76.16
2023-11-13T13:02:26.698Z,76.48
2023-11-13T13:04:59.021Z,76.21
2023-11-13T13:07:27.182Z,75.43
2023-11-13T13:09:53.756Z,74.21
2023-11-13T13:12:20.874Z,75.07
2023-11-13T13:14:47.701Z,73.95
2023-11-13T13:17:14.384Z,75.07
2023-11-13T13:19:41.092Z,76.22
2023-11-13T13:22:10.397Z,76.11
2023-11-13T13:24:37.290Z,75.03
2023-11-13T13:27:03.944Z,74.55
2023-11-13T13:29:30.555Z,76.39
2023-11-13T13:31:57.314Z,75.65
2023-11-13T13:34:23.933Z,74.94
2023-11-13T13:36:50.563Z,76.48
2023-11-13T13:39:17.214Z,75.90
2023-11-13T13:41:43.823Z,77.02
2023-11-13T13:44:10.939Z,75.99
2023-11-13T13:46:37.556Z,76.30
2023-11-13T13:49:04.163Z,76.21
2023-11-13T13:51:30.786Z,76.90
2023-11-13T13:53:57.382Z,77.98
2023-11-13T13:56:24.142Z,79.02
2023-11-13T13:58:50.806Z,78.30
2023-11-13T14:01:17.429Z,76.53
2023-11-13T14:03:44.087Z,77.01
2023-11-13T14:06:10.701Z,77.31
2023-11-13T14:08:37.272Z,78.22
2023-11-13T14:11:03.956Z,77.86
2023-11-13T14:13:30.564Z,76.85
2023-11-13T14:16:07.618Z,76.67
2023-11-13T14:18:35.888Z,76.28
2023-11-13T14:21:03.048Z,76.73
2023-11-13T14:23:29.814Z,78.10
2023-11-13T14:25:56.599Z,78.30
2023-11-13T14:28:23.672Z,79.75
2023-11-13T14:30:50.528Z,80.37
2023-11-13T14:33:17.545Z,81.09
2023-11-13T14:35:44.158Z,80.56
2023-11-13T14:38:10.811Z,82.46
2023-11-13T14:40:37.442Z,82.16
2023-11-13T14:43:04.066Z,81.49
2023-11-13T14:45:30.720Z,81.97
2023-11-13T14:47:57.395Z,80.77
2023-11-13T14:50:24.695Z,81.74
2023-11-13T14:52:51.696Z,80.18
2023-11-13T14:55:18.388Z,80.08
2023-11-13T14:57:45.745Z,80.75
2023-11-13T15:00:12.396Z,80.71
2023-11-13T15:02:39.330Z,81.08
2023-11-13T15:05:06.932Z,80.54
2023-11-13T15:07:33.674Z,80.28
2023-11-13T15:10:00.399Z,79.44
2023-11-13T15:12:29.566Z,80.17
2023-11-13T15:14:57.620Z,80.04
2023-11-13T15:17:24.241Z,78.35
2023-11-13T15:19:51.005Z,77.91
2023-11-13T15:22:17.839Z,77.31
2023-11-13T15:24:44.927Z,77.76
2023-11-13T15:27:11.617Z,76.64
2023-11-13T15:29:38.328Z,78.15
2023-11-13T15:32:04.916Z,79.08
2023-11-13T15:34:31.567Z,77.58
2023-11-13T15:36:58.199Z,78.42
2023-11-13T15:39:24.803Z,77.61
2023-11-13T15:41:51.403Z,78.76
2023-11-13T15:44:18.000Z,79.04
2023-11-13T15:46:45.120Z,79.15
2023-11-13T15:49:11.816Z,80.49
2023-11-13T15:51:38.407Z,81.92
2023-11-13T15:54:05.189Z,80.64
2023-11-13T15:56:31.838Z,80.47
2023-11-13T15:58:58.420Z,79.45
2023-11-13T16:01:25.035Z,80.62
2023-11-13T16:03:51.816Z,79.66
2023-11-13T16:06:18.462Z,79.02
2023-11-13T16:08:45.092Z,78.91
2023-11-13T16:11:11.723Z,80.27
2023-11-13T16:13:38.331Z,79.63
2023-11-13T16:16:04.975Z,81.44
2023-11-13T16:18:31.630Z,81.65
2023-11-13T16:20:58.292Z,81.84
2023-11-13T16:23:24.896Z,81.13
2023-11-13T16:25:51.489Z,80.51
2023-11-13T16:28:18.145Z,80.29
2023-11-13T16:30:44.815Z,80.05
2023-11-13T16:33:11.540Z,79.77
2023-11-13T16:35:38.152Z,79.70
2023-11-13T16:38:04.736Z,77.96
2023-11-13T16:40:31.527Z,77.41
2023-11-13T16:42:58.188Z,77.11
2023-11-13T16:45:24.819Z,76.12
2023-11-13T16:47:51.449Z,75.31
2023-11-13T16:50:18.067Z,75.61
2023-11-13T16:52:44.685Z,75.16
2023-11-13T16:55:11.941Z,76.35
2023-11-13T16:57:40.012Z,75.52
2023-11-13T17:00:07.928Z,76.09
2023-11-13T17:02:34.733Z,75.76
2023-11-13T17:05:01.519Z,74.97
2023-11-13T17:07:28.182Z,76.92
2023-11-13T17:09:54.774Z,76.26
2023-11-13T17:12:21.422Z,76.21
2023-11-13T17:14:47.981Z,76.60
2023-11-13T17:17:17.631Z,75.96
2023-11-13T17:19:45.677Z,76.57
2023-11-13T17:22:13.037Z,77.47
2023-11-13T17:24:39.665Z,76.81
2023-11-13T17:27:06.243Z,75.54
2023-11-13T17:29:32.826Z,77.21
2023-11-13T17:31:59.468Z,77.18
2023-11-13T17:34:26.169Z,76.98
2023-11-13T17:36:52.796Z,77.79
2023-11-13T17:39:19.459Z,77.37
2023-11-13T17:41:46.283Z,77.08
2023-11-13T17:44:12.922Z,75.82
2023-11-13T17:46:39.584Z,74.67
2023-11-13T17:49:06.224Z,73.84
2023-11-13T17:51:32.872Z,73.49
2023-11-13T17:53:59.463Z,73.59
2023-11-13T17:56:26.115Z,72.76
2023-11-13T17:58:52.794Z,72.37
2023-11-13T18:01:19.552Z,72.92
2023-11-13T18:03:48.622Z,73.13
2023-11-13T18:06:15.270Z,73.08
2023-11-13T18:08:41.878Z,73.29
2023-11-13T18:11:08.519Z,74.47
2023-11-13T18:13:35.346Z,75.04
2023-11-13T18:16:02.155Z,73.55
2023-11-13T18:18:28.751Z,73.48
2023-11-13T18:20:55.540Z,73.05
2023-11-13T18:23:22.145Z,72.55
2023-11-13T18:25:50.185Z,72.82
2023-11-13T18:28:17.996Z,72.59
2023-11-13T18:30:44.845Z,73.38
2023-11-13T18:33:11.579Z,73.57
2023-11-13T18:35:38.202Z,73.69
2023-11-13T18:38:04.857Z,73.46
2023-11-13T18:40:31.477Z,74.42
2023-11-13T18:42:58.126Z,74.34
2023-11-13T18:45:24.837Z,75.75
2023-11-13T18:47:51.547Z,75.99
2023-11-13T18:50:18.141Z,76.97
2023-11-13T18:52:46.227Z,75.98
2023-11-13T18:55:12.898Z,75.98
2023-11-13T18:57:39.539Z,75.28
2023-11-13T19:00:06.194Z,75.23
2023-11-13T19:02:32.934Z,74.36
2023-11-13T19:04:59.692Z,74.67
2023-11-13T19:07:26.384Z,75.40
2023-11-13T19:09:53.069Z,74.72
2023-11-13T19:12:19.700Z,74.04
2023-11-13T19:14:46.277Z,73.73
2023-11-13T19:17:12.863Z,73.63
2023-11-13T19:19:39.585Z,73.23
2023-11-13T19:22:06.196Z,73.70
2023-11-13T19:24:32.923Z,73.30
2023-11-13T19:26:59.568Z,73.53
2023-11-13T19:29:26.176Z,73.43
2023-11-13T19:31:52.958Z,73.20
2023-11-13T19:34:19.975Z,74.59
2023-11-13T19:36:46.712Z,76.35
2023-11-13T19:39:13.402Z,75.77
2023-11-13T19:41:40.274Z,76.46
2023-11-13T19:44:06.900Z,76.31
2023-11-13T19:46:33.543Z,75.46
2023-11-13T19:49:00.212Z,76.34
2023-11-13T19:51:26.802Z,76.56
2023-11-13T19:53:53.639Z,76.28
2023-11-13T19:56:20.228Z,76.02
2023-11-13T19:58:46.922Z,76.49
2023-11-13T20:01:13.540Z,75.65
2023-11-13T20:03:40.320Z,74.17
2023-11-13T20:06:07.000Z,74.99
2023-11-13T20:08:33.678Z,74.56
2023-11-13T20:11:00.336Z,74.41
2023-11-13T20:13:26.999Z,74.76
2023-11-13T20:15:53.706Z,75.18
2023-11-13T20:18:29.818Z,74.74
2023-11-13T20:21:03.086Z,73.83
2023-11-13T20:23:30.080Z,74.59
2023-11-13T20:25:56.786Z,75.59
2023-11-13T20:28:23.424Z,75.11
2023-11-13T20:30:50.178Z,75.59
2023-11-13T20:33:18.269Z,76.14
2023-11-13T20:35:45.027Z,76.49
2023-11-13T20:38:11.671Z,76.59
2023-11-13T20:40:38.327Z,75.45
2023-11-13T20:43:04.946Z,75.14
2023-11-13T20:45:31.583Z,75.63
2023-11-13T20:47:58.271Z,75.61
2023-11-13T20:50:24.975Z,76.55
2023-11-13T20:52:51.626Z,76.57
2023-11-13T20:55:18.192Z,76.50
2023-11-13T20:57:44.922Z,75.96
2023-11-13T21:00:11.552Z,76.19
2023-11-13T21:02:41.095Z,75.56
2023-11-13T21:05:07.938Z,75.91
2023-11-13T21:07:34.631Z,75.31
2023-11-13T21:10:01.266Z,76.68
2023-11-13T21:12:27.911Z,77.45
2023-11-13T21:14:54.684Z,77.25
2023-11-13T21:17:21.312Z,77.77
2023-11-13T21:19:47.924Z,76.33
2023-11-13T21:22:14.568Z,75.68
2023-11-13T21:24:41.393Z,75.36
2023-11-13T21:27:08.067Z,76.93
2023-11-13T21:29:34.629Z,76.17
2023-11-13T21:32:01.273Z,75.75
2023-11-13T21:34:28.022Z,76.96
2023-11-13T21:36:54.664Z,76.31
2023-11-13T21:39:21.259Z,76.59
2023-11-13T21:41:50.490Z,75.54
2023-11-13T21:44:17.184Z,77.38
2023-11-13T21:46:43.816Z,76.12
2023-11-13T21:49:10.446Z,75.83
2023-11-13T21:51:37.060Z,75.39
2023-11-13T21:54:03.706Z,74.50
2023-11-13T21:56:30.292Z,75.47
2023-11-13T21:58:56.890Z,76.67
2023-11-13T22:01:23.725Z,76.71
2023-11-13T22:03:50.547Z,80.32
2023-11-13T22:06:17.157Z,78.62
2023-11-13T22:08:43.733Z,77.54
2023-11-13T22:11:10.330Z,78.25
2023-11-13T22:13:36.909Z,78.18
2023-11-13T22:16:03.603Z,77.20
2023-11-13T22:18:30.181Z,77.02
2023-11-13T22:20:56.757Z,76.33
2023-11-13T22:23:23.415Z,76.35
2023-11-13T22:25:51.546Z,75.25
2023-11-13T22:28:18.203Z,75.69
2023-11-13T22:30:44.778Z,74.68
2023-11-13T22:33:11.425Z,75.41
2023-11-13T22:35:38.121Z,74.77
2023-11-13T22:38:04.750Z,75.31
2023-11-13T22:40:31.421Z,76.11
2023-11-13T22:42:58.037Z,75.52
2023-11-13T22:45:24.723Z,75.30
2023-11-13T22:47:51.355Z,75.51
2023-11-13T22:50:18.033Z,76.53
2023-11-13T22:52:44.836Z,75.55
2023-11-13T22:55:11.453Z,78.03
2023-11-13T22:57:38.118Z,77.05
2023-11-13T23:00:04.719Z,76.31
2023-11-13T23:02:31.307Z,77.08
2023-11-13T23:04:58.015Z,77.39
2023-11-13T23:07:24.649Z,77.99
2023-11-13T23:09:51.248Z,78.16
2023-11-13T23:12:17.885Z,78.30
2023-11-13T23:14:44.497Z,77.69
2023-11-13T23:17:12.408Z,78.08
2023-11-13T23:19:39.284Z,76.76
2023-11-13T23:22:05.973Z,76.19
2023-11-13T23:24:32.988Z,76.20
2023-11-13T23:26:59.989Z,76.68
2023-11-13T23:29:26.592Z,75.39
2023-11-13T23:31:53.266Z,77.37
2023-11-13T23:34:19.920Z,76.56
2023-11-13T23:36:46.685Z,76.44
2023-11-13T23:39:13.286Z,75.79
2023-11-13T23:41:39.895Z,77.14
2023-11-13T23:44:06.492Z,78.72
2023-11-13T23:46:33.331Z,77.53
2023-11-13T23:48:59.966Z,76.84
2023-11-13T23:51:26.568Z,76.95
2023-11-13T23:53:53.152Z,76.57
2023-11-13T23:56:19.784Z,77.81
2023-11-13T23:58:46.429Z,78.75
